sensor_id;sensor_type;location;lat;lon;timestamp;pressure;altitude;pressure_sealevel;temperature;humidity
18022;BME280;9136;48.822;7.966;2023-05-21T00:00:24;99874.56;;;15.77;100.00
18022;BME280;9136;48.822;7.966;2023-05-21T00:03:12;99869.16;;;15.78;100.00
18022;BME280;9136;48.822;7.966;2023-05-21T00:06:01;99855.53;;;15.70;100.00
18022;BME280;9136;48.822;7.966;2023-05-21T00:08:49;99856.47;;;15.69;100.00
18022;BME280;9136;48.822;7.966;2023-05-21T00:11:37;99853.63;;;15.72;100.00
18022;BME280;9136;48.822;7.966;2023-05-21T00:14:26;99823.00;;;15.52;100.00
18022;BME280;9136;48.822;7.966;2023-05-21T00:17:14;99838.22;;;15.64;100.00
18022;BME280;9136;48.822;7.966;2023-05-21T00:20:04;99849.28;;;15.71;100.00
18022;BME280;9136;48.822;7.966;2023-05-21T00:22:52;99852.03;;;15.69;100.00
18022;BME280;9136;48.822;7.966;2023-05-21T00:25:40;99850.22;;;15.70;100.00
18022;BME280;9136;48.822;7.966;2023-05-21T00:28:28;99810.81;;;15.50;100.00
18022;BME280;9136;48.822;7.966;2023-05-21T00:31:17;99826.25;;;15.57;100.00
18022;BME280;9136;48.822;7.966;2023-05-21T00:34:05;99822.75;;;15.57;100.00
18022;BME280;9136;48.822;7.966;2023-05-21T00:36:54;99833.69;;;15.66;100.00
18022;BME280;9136;48.822;7.966;2023-05-21T00:39:42;99820.47;;;15.51;100.00
18022;BME280;9136;48.822;7.966;2023-05-21T00:42:30;99810.81;;;15.50;100.00
18022;BME280;9136;48.822;7.966;2023-05-21T00:45:19;99798.97;;;15.41;100.00
18022;BME280;9136;48.822;7.966;2023-05-21T00:48:11;99816.22;;;15.48;100.00
18022;BME280;9136;48.822;7.966;2023-05-21T00:51:00;99826.69;;;15.50;100.00
18022;BME280;9136;48.822;7.966;2023-05-21T00:53:50;99800.88;;;15.39;100.00
18022;BME280;9136;48.822;7.966;2023-05-21T00:56:38;99807.00;;;15.39;100.00
18022;BME280;9136;48.822;7.966;2023-05-21T00:59:26;99792.44;;;15.32;100.00
18022;BME280;9136;48.822;7.966;2023-05-21T01:02:15;99807.00;;;15.39;100.00
18022;BME280;9136;48.822;7.966;2023-05-21T01:05:06;99793.38;;;15.31;100.00
18022;BME280;9136;48.822;7.966;2023-05-21T01:07:54;99791.47;;;15.19;100.00
18022;BME280;9136;48.822;7.966;2023-05-21T01:10:43;99802.53;;;15.26;100.00
18022;BME280;9136;48.822;7.966;2023-05-21T01:13:33;99791.97;;;15.26;100.00
18022;BME280;9136;48.822;7.966;2023-05-21T01:16:22;99778.75;;;15.10;100.00
18022;BME280;9136;48.822;7.966;2023-05-21T01:19:14;99797.09;;;15.13;100.00
18022;BME280;9136;48.822;7.966;2023-05-21T01:22:06;99802.22;;;15.16;100.00
18022;BME280;9136;48.822;7.966;2023-05-21T01:24:55;99801.94;;;15.21;100.00
18022;BME280;9136;48.822;7.966;2023-05-21T01:27:43;99798.13;;;15.10;100.00
18022;BME280;9136;48.822;7.966;2023-05-21T01:30:31;99792.84;;;15.10;100.00
18022;BME280;9136;48.822;7.966;2023-05-21T01:33:25;99792.94;;;15.09;100.00
18022;BME280;9136;48.822;7.966;2023-05-21T01:36:20;99809.22;;;15.17;100.00
18022;BME280;9136;48.822;7.966;2023-05-21T01:39:14;99805.97;;;15.12;100.00
18022;BME280;9136;48.822;7.966;2023-05-21T01:42:08;99782.97;;;14.98;100.00
18022;BME280;9136;48.822;7.966;2023-05-21T01:44:58;99783.06;;;14.97;100.00
18022;BME280;9136;48.822;7.966;2023-05-21T01:47:49;99787.41;;;14.98;100.00
18022;BME280;9136;48.822;7.966;2023-05-21T01:50:39;99771.91;;;14.92;100.00
18022;BME280;9136;48.822;7.966;2023-05-21T01:53:28;99797.81;;;15.01;100.00
18022;BME280;9136;48.822;7.966;2023-05-21T01:56:17;99754.84;;;14.81;100.00
18022;BME280;9136;48.822;7.966;2023-05-21T01:59:06;99770.44;;;14.86;100.00
18022;BME280;9136;48.822;7.966;2023-05-21T02:01:54;99765.44;;;14.81;100.00
18022;BME280;9136;48.822;7.966;2023-05-21T02:04:42;99774.13;;;14.83;100.00
18022;BME280;9136;48.822;7.966;2023-05-21T02:07:31;99746.69;;;14.70;100.00
18022;BME280;9136;48.822;7.966;2023-05-21T02:10:19;99779.06;;;14.89;100.00
18022;BME280;9136;48.822;7.966;2023-05-21T02:13:07;99758.31;;;14.68;100.00
18022;BME280;9136;48.822;7.966;2023-05-21T02:15:56;99764.75;;;14.78;100.00
18022;BME280;9136;48.822;7.966;2023-05-21T02:18:44;99754.97;;;14.64;100.00
18022;BME280;9136;48.822;7.966;2023-05-21T02:21:33;99766.03;;;14.71;100.00
18022;BME280;9136;48.822;7.966;2023-05-21T02:24:21;99761.38;;;14.60;100.00
18022;BME280;9136;48.822;7.966;2023-05-21T02:27:09;99765.09;;;14.56;100.00
18022;BME280;9136;48.822;7.966;2023-05-21T02:29:58;99761.63;;;14.55;100.00
18022;BME280;9136;48.822;7.966;2023-05-21T02:32:48;99762.56;;;14.54;100.00
18022;BME280;9136;48.822;7.966;2023-05-21T02:35:36;99754.28;;;14.45;100.00
18022;BME280;9136;48.822;7.966;2023-05-21T02:38:24;99774.81;;;14.55;100.00
18022;BME280;9136;48.822;7.966;2023-05-21T02:41:12;99773.66;;;14.61;100.00
18022;BME280;9136;48.822;7.966;2023-05-21T02:44:01;99737.03;;;14.38;100.00
18022;BME280;9136;48.822;7.966;2023-05-21T02:46:49;99758.63;;;14.46;100.00
18022;BME280;9136;48.822;7.966;2023-05-21T02:49:38;99773.31;;;14.51;100.00
18022;BME280;9136;48.822;7.966;2023-05-21T02:52:26;99766.63;;;14.44;100.00
18022;BME280;9136;48.822;7.966;2023-05-21T02:55:14;99749.84;;;14.29;100.00
18022;BME280;9136;48.822;7.966;2023-05-21T02:58:02;99775.28;;;14.48;100.00
18022;BME280;9136;48.822;7.966;2023-05-21T03:00:50;99781.47;;;14.47;100.00
18022;BME280;9136;48.822;7.966;2023-05-21T03:03:39;99748.16;;;14.28;100.00
18022;BME280;9136;48.822;7.966;2023-05-21T03:06:28;99785.13;;;14.44;100.00
18022;BME280;9136;48.822;7.966;2023-05-21T03:09:17;99776.84;;;14.35;100.00
18022;BME280;9136;48.822;7.966;2023-05-21T03:12:07;99769.09;;;14.31;100.00
18022;BME280;9136;48.822;7.966;2023-05-21T03:14:55;99762.97;;;14.31;100.00
18022;BME280;9136;48.822;7.966;2023-05-21T03:17:43;99743.44;;;14.18;100.00
18022;BME280;9136;48.822;7.966;2023-05-21T03:20:31;99739.09;;;14.17;100.00
18022;BME280;9136;48.822;7.966;2023-05-21T03:23:20;99731.34;;;14.14;100.00
18022;BME280;9136;48.822;7.966;2023-05-21T03:26:08;99749.66;;;14.17;100.00
18022;BME280;9136;48.822;7.966;2023-05-21T03:28:56;99742.41;;;14.04;100.00
18022;BME280;9136;48.822;7.966;2023-05-21T03:31:44;99757.00;;;14.12;100.00
18022;BME280;9136;48.822;7.966;2023-05-21T03:34:32;99762.34;;;14.10;100.00
18022;BME280;9136;48.822;7.966;2023-05-21T03:37:21;99759.00;;;14.07;100.00
18022;BME280;9136;48.822;7.966;2023-05-21T03:40:12;99764.28;;;14.07;100.00
18022;BME280;9136;48.822;7.966;2023-05-21T03:43:02;99781.25;;;14.18;100.00
18022;BME280;9136;48.822;7.966;2023-05-21T03:45:50;99757.66;;;13.99;100.00
18022;BME280;9136;48.822;7.966;2023-05-21T03:48:38;99777.50;;;14.07;100.00
18022;BME280;9136;48.822;7.966;2023-05-21T03:51:26;99767.19;;;14.02;100.00
18022;BME280;9136;48.822;7.966;2023-05-21T03:54:15;99765.59;;;13.99;100.00
18022;BME280;9136;48.822;7.966;2023-05-21T03:57:04;99758.75;;;13.95;100.00
18022;BME280;9136;48.822;7.966;2023-05-21T03:59:52;99786.28;;;14.07;100.00
18022;BME280;9136;48.822;7.966;2023-05-21T04:02:40;99783.81;;;14.04;100.00
18022;BME280;9136;48.822;7.966;2023-05-21T04:05:28;99765.06;;;13.93;100.00
18022;BME280;9136;48.822;7.966;2023-05-21T04:08:16;99786.44;;;14.04;100.00
18022;BME280;9136;48.822;7.966;2023-05-21T04:11:04;99775.88;;;14.04;100.00
18022;BME280;9136;48.822;7.966;2023-05-21T04:13:54;99788.78;;;14.10;100.00
18022;BME280;9136;48.822;7.966;2023-05-21T04:16:42;99782.09;;;14.03;100.00
18022;BME280;9136;48.822;7.966;2023-05-21T04:19:30;99784.91;;;14.00;100.00
18022;BME280;9136;48.822;7.966;2023-05-21T04:22:18;99814.69;;;14.19;100.00
18022;BME280;9136;48.822;7.966;2023-05-21T04:25:07;99787.97;;;14.08;100.00
18022;BME280;9136;48.822;7.966;2023-05-21T04:27:55;99814.25;;;14.27;100.00
18022;BME280;9136;48.822;7.966;2023-05-21T04:30:45;99788.19;;;14.21;100.00
18022;BME280;9136;48.822;7.966;2023-05-21T04:33:33;99822.88;;;14.30;100.00
18022;BME280;9136;48.822;7.966;2023-05-21T04:36:21;99793.69;;;14.16;100.00
18022;BME280;9136;48.822;7.966;2023-05-21T04:39:09;99802.84;;;14.26;100.00
18022;BME280;9136;48.822;7.966;2023-05-21T04:41:57;99805.91;;;14.35;100.00
18022;BME280;9136;48.822;7.966;2023-05-21T04:44:45;99822.06;;;14.46;100.00
18022;BME280;9136;48.822;7.966;2023-05-21T04:47:35;99824.06;;;14.58;100.00
18022;BME280;9136;48.822;7.966;2023-05-21T04:50:23;99805.88;;;14.52;100.00
18022;BME280;9136;48.822;7.966;2023-05-21T04:53:11;99805.94;;;14.66;100.00
18022;BME280;9136;48.822;7.966;2023-05-21T04:55:59;99817.81;;;14.75;100.00
18022;BME280;9136;48.822;7.966;2023-05-21T04:58:47;99816.78;;;14.77;100.00
18022;BME280;9136;48.822;7.966;2023-05-21T05:01:35;99821.63;;;14.85;100.00
18022;BME280;9136;48.822;7.966;2023-05-21T05:04:25;99807.66;;;14.83;100.00
18022;BME280;9136;48.822;7.966;2023-05-21T05:07:13;99828.94;;;14.96;100.00
18022;BME280;9136;48.822;7.966;2023-05-21T05:10:02;99797.78;;;14.86;100.00
18022;BME280;9136;48.822;7.966;2023-05-21T05:12:50;99835.84;;;15.14;100.00
18022;BME280;9136;48.822;7.966;2023-05-21T05:15:38;99819.38;;;15.09;100.00
18022;BME280;9136;48.822;7.966;2023-05-21T05:18:26;99799.31;;;15.05;100.00
18022;BME280;9136;48.822;7.966;2023-05-21T05:21:20;99814.66;;;15.14;100.00
18022;BME280;9136;48.822;7.966;2023-05-21T05:24:08;99842.63;;;15.34;100.00
18022;BME280;9136;48.822;7.966;2023-05-21T05:26:56;99817.28;;;15.30;100.00
18022;BME280;9136;48.822;7.966;2023-05-21T05:29:44;99832.34;;;15.43;100.00
18022;BME280;9136;48.822;7.966;2023-05-21T05:32:32;99808.72;;;15.40;100.00
18022;BME280;9136;48.822;7.966;2023-05-21T05:35:20;99834.19;;;15.57;100.00
18022;BME280;9136;48.822;7.966;2023-05-21T05:38:10;99804.66;;;15.49;100.00
18022;BME280;9136;48.822;7.966;2023-05-21T05:40:58;99816.25;;;15.62;100.00
18022;BME280;9136;48.822;7.966;2023-05-21T05:43:46;99796.03;;;15.61;100.00
18022;BME280;9136;48.822;7.966;2023-05-21T05:46:34;99804.16;;;15.72;100.00
18022;BME280;9136;48.822;7.966;2023-05-21T05:49:22;99819.22;;;15.86;100.00
18022;BME280;9136;48.822;7.966;2023-05-21T05:52:09;99798.31;;;15.82;100.00
18022;BME280;9136;48.822;7.966;2023-05-21T05:54:59;99793.78;;;15.84;100.00
18022;BME280;9136;48.822;7.966;2023-05-21T05:57:46;99795.78;;;15.94;100.00
18022;BME280;9136;48.822;7.966;2023-05-21T06:00:34;99819.59;;;16.09;100.00
18022;BME280;9136;48.822;7.966;2023-05-21T06:03:22;99790.09;;;16.00;100.00
18022;BME280;9136;48.822;7.966;2023-05-21T06:06:10;99804.66;;;16.22;100.00
18022;BME280;9136;48.822;7.966;2023-05-21T06:08:58;99810.03;;;16.35;100.00
18022;BME280;9136;48.822;7.966;2023-05-21T06:11:47;99798.19;;;16.40;100.00
18022;BME280;9136;48.822;7.966;2023-05-21T06:14:35;99816.84;;;16.53;100.00
18022;BME280;9136;48.822;7.966;2023-05-21T06:17:25;99790.91;;;16.44;100.00
18022;BME280;9136;48.822;7.966;2023-05-21T06:20:14;99816.16;;;16.64;100.00
18022;BME280;9136;48.822;7.966;2023-05-21T06:23:02;99802.13;;;16.62;100.00
18022;BME280;9136;48.822;7.966;2023-05-21T06:25:52;99807.84;;;16.70;100.00
18022;BME280;9136;48.822;7.966;2023-05-21T06:28:41;99792.84;;;16.69;100.00
18022;BME280;9136;48.822;7.966;2023-05-21T06:31:29;99802.59;;;16.82;100.00
18022;BME280;9136;48.822;7.966;2023-05-21T06:34:18;99811.31;;;16.97;100.00
18022;BME280;9136;48.822;7.966;2023-05-21T06:37:06;99802.47;;;17.11;100.00
18022;BME280;9136;48.822;7.966;2023-05-21T06:39:54;99804.91;;;17.14;100.00
18022;BME280;9136;48.822;7.966;2023-05-21T06:42:42;99821.19;;;17.22;100.00
18022;BME280;9136;48.822;7.966;2023-05-21T06:45:34;99821.94;;;17.37;100.00
18022;BME280;9136;48.822;7.966;2023-05-21T06:48:22;99806.69;;;17.40;100.00
18022;BME280;9136;48.822;7.966;2023-05-21T06:51:11;99834.13;;;17.66;100.00
18022;BME280;9136;48.822;7.966;2023-05-21T06:53:59;99819.50;;;17.73;100.00
18022;BME280;9136;48.822;7.966;2023-05-21T06:56:47;99818.16;;;17.54;100.00
18022;BME280;9136;48.822;7.966;2023-05-21T06:59:36;99826.09;;;17.81;100.00
18022;BME280;9136;48.822;7.966;2023-05-21T07:02:25;99822.38;;;17.70;100.00
18022;BME280;9136;48.822;7.966;2023-05-21T07:05:12;99836.84;;;17.79;100.00
18022;BME280;9136;48.822;7.966;2023-05-21T07:08:00;99826.22;;;17.79;100.00
18022;BME280;9136;48.822;7.966;2023-05-21T07:10:48;99820.34;;;18.12;100.00
18022;BME280;9136;48.822;7.966;2023-05-21T07:13:36;99825.25;;;18.18;100.00
18022;BME280;9136;48.822;7.966;2023-05-21T07:16:24;99820.75;;;18.31;100.00
18022;BME280;9136;48.822;7.966;2023-05-21T07:19:14;99840.75;;;18.37;100.00
18022;BME280;9136;48.822;7.966;2023-05-21T07:22:04;99853.28;;;18.48;100.00
18022;BME280;9136;48.822;7.966;2023-05-21T07:24:52;99811.59;;;18.36;100.00
18022;BME280;9136;48.822;7.966;2023-05-21T07:27:40;99828.34;;;18.74;100.00
18022;BME280;9136;48.822;7.966;2023-05-21T07:30:28;99816.34;;;18.93;100.00
18022;BME280;9136;48.822;7.966;2023-05-21T07:33:16;99822.63;;;19.15;100.00
18022;BME280;9136;48.822;7.966;2023-05-21T07:36:08;99814.50;;;19.41;100.00
18022;BME280;9136;48.822;7.966;2023-05-21T07:38:56;99806.16;;;19.45;100.00
18022;BME280;9136;48.822;7.966;2023-05-21T07:41:44;99797.47;;;19.55;100.00
18022;BME280;9136;48.822;7.966;2023-05-21T07:44:35;99830.25;;;19.79;100.00
18022;BME280;9136;48.822;7.966;2023-05-21T07:47:22;99802.78;;;19.55;100.00
18022;BME280;9136;48.822;7.966;2023-05-21T07:50:13;99807.69;;;19.61;100.00
18022;BME280;9136;48.822;7.966;2023-05-21T07:53:02;99819.53;;;19.57;100.00
18022;BME280;9136;48.822;7.966;2023-05-21T07:55:52;99824.00;;;19.56;100.00
18022;BME280;9136;48.822;7.966;2023-05-21T07:58:39;99805.31;;;19.45;100.00
18022;BME280;9136;48.822;7.966;2023-05-21T08:01:29;99802.00;;;19.30;100.00
18022;BME280;9136;48.822;7.966;2023-05-21T08:04:18;99823.63;;;19.50;100.00
18022;BME280;9136;48.822;7.966;2023-05-21T08:07:06;99819.78;;;19.65;100.00
18022;BME280;9136;48.822;7.966;2023-05-21T08:09:56;99834.22;;;19.62;100.00
18022;BME280;9136;48.822;7.966;2023-05-21T08:12:45;99802.00;;;19.30;100.00
18022;BME280;9136;48.822;7.966;2023-05-21T08:15:33;99814.13;;;19.45;100.00
18022;BME280;9136;48.822;7.966;2023-05-21T08:18:21;99817.72;;;19.57;100.00
18022;BME280;9136;48.822;7.966;2023-05-21T08:21:10;99815.44;;;19.64;100.00
18022;BME280;9136;48.822;7.966;2023-05-21T08:23:58;99798.31;;;19.55;100.00
18022;BME280;9136;48.822;7.966;2023-05-21T08:26:49;99832.69;;;19.82;100.00
18022;BME280;9136;48.822;7.966;2023-05-21T08:29:37;99793.03;;;19.78;100.00
18022;BME280;9136;48.822;7.966;2023-05-21T08:32:25;99802.91;;;20.11;100.00
18022;BME280;9136;48.822;7.966;2023-05-21T08:35:13;99802.50;;;20.26;100.00
18022;BME280;9136;48.822;7.966;2023-05-21T08:38:01;99812.56;;;20.34;100.00
18022;BME280;9136;48.822;7.966;2023-05-21T08:40:50;99792.94;;;20.35;100.00
18022;BME280;9136;48.822;7.966;2023-05-21T08:43:42;99788.34;;;20.37;100.00
18022;BME280;9136;48.822;7.966;2023-05-21T08:46:32;99791.03;;;20.48;100.00
18022;BME280;9136;48.822;7.966;2023-05-21T08:49:23;99790.38;;;20.67;100.00
18022;BME280;9136;48.822;7.966;2023-05-21T08:52:13;99806.81;;;20.83;100.00
18022;BME280;9136;48.822;7.966;2023-05-21T08:55:02;99805.63;;;20.88;100.00
18022;BME280;9136;48.822;7.966;2023-05-21T08:57:52;99811.50;;;21.02;100.00
18022;BME280;9136;48.822;7.966;2023-05-21T09:00:42;99820.34;;;21.14;100.00
18022;BME280;9136;48.822;7.966;2023-05-21T09:03:30;99791.34;;;21.09;100.00
18022;BME280;9136;48.822;7.966;2023-05-21T09:06:18;99815.19;;;21.33;100.00
18022;BME280;9136;48.822;7.966;2023-05-21T09:09:13;99818.03;;;21.53;100.00
18022;BME280;9136;48.822;7.966;2023-05-21T09:12:05;99805.94;;;21.37;100.00
18022;BME280;9136;48.822;7.966;2023-05-21T09:14:53;99816.28;;;21.52;100.00
18022;BME280;9136;48.822;7.966;2023-05-21T09:17:47;99830.47;;;21.84;100.00
18022;BME280;9136;48.822;7.966;2023-05-21T09:20:34;99817.72;;;21.97;100.00
18022;BME280;9136;48.822;7.966;2023-05-21T09:23:22;99808.53;;;21.90;100.00
18022;BME280;9136;48.822;7.966;2023-05-21T09:26:11;99795.34;;;21.98;100.00
18022;BME280;9136;48.822;7.966;2023-05-21T09:28:59;99812.28;;;22.30;100.00
18022;BME280;9136;48.822;7.966;2023-05-21T09:31:48;99803.00;;;22.34;100.00
18022;BME280;9136;48.822;7.966;2023-05-21T09:34:38;99817.41;;;22.42;100.00
18022;BME280;9136;48.822;7.966;2023-05-21T09:37:26;99816.47;;;22.22;100.00
18022;BME280;9136;48.822;7.966;2023-05-21T09:40:14;99824.56;;;22.42;100.00
18022;BME280;9136;48.822;7.966;2023-05-21T09:43:04;99811.31;;;22.31;100.00
18022;BME280;9136;48.822;7.966;2023-05-21T09:45:52;99829.97;;;22.51;100.00
18022;BME280;9136;48.822;7.966;2023-05-21T09:48:41;99816.59;;;22.61;100.00
18022;BME280;9136;48.822;7.966;2023-05-21T09:51:30;99824.81;;;22.69;100.00
18022;BME280;9136;48.822;7.966;2023-05-21T09:54:20;99807.78;;;22.80;100.00
18022;BME280;9136;48.822;7.966;2023-05-21T09:57:08;99826.72;;;22.88;100.00
18022;BME280;9136;48.822;7.966;2023-05-21T09:59:57;99826.72;;;22.98;99.20
18022;BME280;9136;48.822;7.966;2023-05-21T10:02:46;99810.78;;;23.06;99.74
18022;BME280;9136;48.822;7.966;2023-05-21T10:05:35;99817.28;;;23.23;100.00
18022;BME280;9136;48.822;7.966;2023-05-21T10:08:26;99806.16;;;23.47;96.57
18022;BME280;9136;48.822;7.966;2023-05-21T10:11:16;99796.25;;;23.76;94.24
18022;BME280;9136;48.822;7.966;2023-05-21T10:14:08;99807.31;;;24.01;96.58
18022;BME280;9136;48.822;7.966;2023-05-21T10:16:59;99809.28;;;24.08;94.86
18022;BME280;9136;48.822;7.966;2023-05-21T10:19:48;99823.19;;;24.21;86.10
18022;BME280;9136;48.822;7.966;2023-05-21T10:22:38;99818.25;;;23.80;83.89
18022;BME280;9136;48.822;7.966;2023-05-21T10:25:29;99800.19;;;23.72;90.22
18022;BME280;9136;48.822;7.966;2023-05-21T10:28:19;99791.13;;;23.83;88.10
18022;BME280;9136;48.822;7.966;2023-05-21T10:31:07;99801.41;;;23.97;94.87
18022;BME280;9136;48.822;7.966;2023-05-21T10:33:55;99796.81;;;24.17;90.07
18022;BME280;9136;48.822;7.966;2023-05-21T10:36:43;99791.41;;;24.36;95.34
18022;BME280;9136;48.822;7.966;2023-05-21T10:39:32;99783.66;;;24.33;91.03
18022;BME280;9136;48.822;7.966;2023-05-21T10:42:41;99779.75;;;24.45;85.96
18022;BME280;9136;48.822;7.966;2023-05-21T10:45:52;99771.75;;;24.63;84.29
18022;BME280;9136;48.822;7.966;2023-05-21T10:49:00;99788.47;;;24.75;80.43
18022;BME280;9136;48.822;7.966;2023-05-21T10:52:00;99783.53;;;24.70;87.51
18022;BME280;9136;48.822;7.966;2023-05-21T10:54:59;99770.47;;;24.30;80.24
18022;BME280;9136;48.822;7.966;2023-05-21T10:58:13;99788.19;;;24.23;80.39
18022;BME280;9136;48.822;7.966;2023-05-21T11:01:04;99776.47;;;24.51;75.07
18022;BME280;9136;48.822;7.966;2023-05-21T11:03:54;99780.81;;;25.51;75.35
18022;BME280;9136;48.822;7.966;2023-05-21T11:06:46;99790.38;;;27.24;59.90
18022;BME280;9136;48.822;7.966;2023-05-21T11:09:34;99774.09;;;29.15;49.24
18022;BME280;9136;48.822;7.966;2023-05-21T11:12:22;99783.03;;;31.37;44.31
18022;BME280;9136;48.822;7.966;2023-05-21T11:15:14;99794.28;;;32.59;39.34
18022;BME280;9136;48.822;7.966;2023-05-21T11:18:02;99793.03;;;33.16;36.52
18022;BME280;9136;48.822;7.966;2023-05-21T11:20:50;99785.94;;;32.61;35.14
18022;BME280;9136;48.822;7.966;2023-05-21T11:23:47;99783.22;;;32.61;36.29
18022;BME280;9136;48.822;7.966;2023-05-21T11:27:00;99778.13;;;32.92;34.54
18022;BME280;9136;48.822;7.966;2023-05-21T11:29:54;99766.63;;;33.17;36.85
18022;BME280;9136;48.822;7.966;2023-05-21T11:36:13;99758.72;;;33.62;33.69
18022;BME280;9136;48.822;7.966;2023-05-21T11:39:08;99781.09;;;33.24;34.66
18022;BME280;9136;48.822;7.966;2023-05-21T11:41:58;99771.06;;;33.38;35.04
18022;BME280;9136;48.822;7.966;2023-05-21T11:44:47;99774.91;;;34.48;34.65
18022;BME280;9136;48.822;7.966;2023-05-21T11:47:35;99774.22;;;34.65;34.42
18022;BME280;9136;48.822;7.966;2023-05-21T11:50:23;99785.03;;;34.79;34.35
18022;BME280;9136;48.822;7.966;2023-05-21T11:53:14;99765.91;;;34.34;33.80
18022;BME280;9136;48.822;7.966;2023-05-21T11:56:02;99769.69;;;34.84;34.50
18022;BME280;9136;48.822;7.966;2023-05-21T11:58:52;99779.59;;;34.79;34.26
18022;BME280;9136;48.822;7.966;2023-05-21T12:01:42;99771.38;;;34.85;34.73
18022;BME280;9136;48.822;7.966;2023-05-21T12:04:30;99774.16;;;34.21;33.71
18022;BME280;9136;48.822;7.966;2023-05-21T12:07:19;99770.81;;;33.85;34.89
18022;BME280;9136;48.822;7.966;2023-05-21T12:10:09;99759.38;;;34.48;34.23
18022;BME280;9136;48.822;7.966;2023-05-21T12:12:57;99772.69;;;34.76;32.54
18022;BME280;9136;48.822;7.966;2023-05-21T12:15:45;99767.22;;;35.46;32.64
18022;BME280;9136;48.822;7.966;2023-05-21T12:18:35;99776.25;;;35.71;31.06
18022;BME280;9136;48.822;7.966;2023-05-21T12:21:23;99767.03;;;35.91;33.68
18022;BME280;9136;48.822;7.966;2023-05-21T12:24:11;99769.09;;;36.50;32.38
18022;BME280;9136;48.822;7.966;2023-05-21T12:27:01;99750.34;;;36.35;30.76
18022;BME280;9136;48.822;7.966;2023-05-21T12:29:54;99768.09;;;36.08;31.58
18022;BME280;9136;48.822;7.966;2023-05-21T12:32:43;99762.63;;;36.45;32.00
18022;BME280;9136;48.822;7.966;2023-05-21T12:35:30;99771.94;;;36.74;31.30
18022;BME280;9136;48.822;7.966;2023-05-21T12:38:18;99755.38;;;36.87;30.79
18022;BME280;9136;48.822;7.966;2023-05-21T12:41:06;99763.44;;;36.63;30.38
18022;BME280;9136;48.822;7.966;2023-05-21T12:43:56;99751.78;;;36.86;32.19
18022;BME280;9136;48.822;7.966;2023-05-21T12:46:44;99756.94;;;37.36;30.07
18022;BME280;9136;48.822;7.966;2023-05-21T12:49:33;99736.19;;;36.20;30.25
18022;BME280;9136;48.822;7.966;2023-05-21T12:52:22;99741.09;;;34.55;32.10
18022;BME280;9136;48.822;7.966;2023-05-21T12:55:12;99750.16;;;34.49;34.07
18022;BME280;9136;48.822;7.966;2023-05-21T12:58:03;99744.75;;;35.44;33.64
18022;BME280;9136;48.822;7.966;2023-05-21T13:00:55;99758.13;;;35.95;31.83
18022;BME280;9136;48.822;7.966;2023-05-21T13:03:43;99754.59;;;36.13;30.95
18022;BME280;9136;48.822;7.966;2023-05-21T13:06:41;99755.19;;;36.15;30.60
18022;BME280;9136;48.822;7.966;2023-05-21T13:09:29;99733.03;;;35.80;29.92
18022;BME280;9136;48.822;7.966;2023-05-21T13:12:16;99752.97;;;35.87;32.29
18022;BME280;9136;48.822;7.966;2023-05-21T13:15:05;99729.06;;;35.33;31.22
18022;BME280;9136;48.822;7.966;2023-05-21T13:17:56;99719.00;;;35.76;31.83
18022;BME280;9136;48.822;7.966;2023-05-21T13:20:46;99740.31;;;36.78;31.34
18022;BME280;9136;48.822;7.966;2023-05-21T13:23:34;99725.94;;;36.16;30.99
18022;BME280;9136;48.822;7.966;2023-05-21T13:26:22;99734.34;;;35.27;29.60
18022;BME280;9136;48.822;7.966;2023-05-21T13:29:09;99727.06;;;34.90;32.75
18022;BME280;9136;48.822;7.966;2023-05-21T13:31:59;99738.28;;;35.81;29.58
18022;BME280;9136;48.822;7.966;2023-05-21T13:34:49;99746.69;;;36.72;29.50
18022;BME280;9136;48.822;7.966;2023-05-21T13:37:38;99745.72;;;36.96;29.78
18022;BME280;9136;48.822;7.966;2023-05-21T13:40:26;99728.66;;;36.82;29.22
18022;BME280;9136;48.822;7.966;2023-05-21T13:43:13;99739.41;;;36.95;28.88
18022;BME280;9136;48.822;7.966;2023-05-21T13:46:02;99744.47;;;37.10;31.11
18022;BME280;9136;48.822;7.966;2023-05-21T13:48:50;99734.66;;;36.06;31.00
18022;BME280;9136;48.822;7.966;2023-05-21T13:51:40;99733.38;;;35.47;31.27
18022;BME280;9136;48.822;7.966;2023-05-21T13:54:28;99733.72;;;35.25;31.34
18022;BME280;9136;48.822;7.966;2023-05-21T13:57:16;99727.72;;;35.17;32.26
18022;BME280;9136;48.822;7.966;2023-05-21T14:00:05;99726.03;;;34.46;33.26
18022;BME280;9136;48.822;7.966;2023-05-21T14:02:54;99727.88;;;33.81;34.57
18022;BME280;9136;48.822;7.966;2023-05-21T14:05:44;99734.38;;;33.80;31.57
18022;BME280;9136;48.822;7.966;2023-05-21T14:08:35;99724.47;;;34.05;31.77
18022;BME280;9136;48.822;7.966;2023-05-21T14:11:23;99723.53;;;35.14;32.33
18022;BME280;9136;48.822;7.966;2023-05-21T14:14:12;99719.44;;;35.73;31.00
18022;BME280;9136;48.822;7.966;2023-05-21T14:17:04;99722.66;;;36.44;29.06
18022;BME280;9136;48.822;7.966;2023-05-21T14:19:52;99717.19;;;36.44;29.92
18022;BME280;9136;48.822;7.966;2023-05-21T14:22:40;99727.66;;;36.28;29.68
18022;BME280;9136;48.822;7.966;2023-05-21T14:25:29;99722.91;;;36.05;30.11
18022;BME280;9136;48.822;7.966;2023-05-21T14:28:17;99717.00;;;35.15;30.12
18022;BME280;9136;48.822;7.966;2023-05-21T14:31:08;99709.91;;;34.31;31.50
18022;BME280;9136;48.822;7.966;2023-05-21T14:33:56;99709.44;;;33.76;33.15
18022;BME280;9136;48.822;7.966;2023-05-21T14:36:43;99714.66;;;34.56;32.26
18022;BME280;9136;48.822;7.966;2023-05-21T14:39:31;99710.69;;;33.94;33.33
18022;BME280;9136;48.822;7.966;2023-05-21T14:42:21;99714.91;;;32.84;35.41
18022;BME280;9136;48.822;7.966;2023-05-21T14:45:09;99701.06;;;32.24;34.02
18022;BME280;9136;48.822;7.966;2023-05-21T14:47:57;99705.19;;;32.07;35.58
18022;BME280;9136;48.822;7.966;2023-05-21T14:50:45;99698.31;;;32.17;36.09
18022;BME280;9136;48.822;7.966;2023-05-21T14:53:33;99704.50;;;32.39;35.64
18022;BME280;9136;48.822;7.966;2023-05-21T14:56:22;99703.28;;;32.62;37.11
18022;BME280;9136;48.822;7.966;2023-05-21T14:59:13;99686.38;;;32.80;36.56
18022;BME280;9136;48.822;7.966;2023-05-21T15:02:01;99684.59;;;32.32;36.65
18022;BME280;9136;48.822;7.966;2023-05-21T15:04:49;99676.97;;;32.08;37.47